Terminal Aerodrome Forecast
Issued by NWS

Home | Current Version | Previous Version | Graphics & Text | Print | Product List | Glossary On
Versions: 1 2 3 4 5 6 7 8 9 10 11 12 13 14 15 16 17 18
000
FTUS43 KICT 011706 AAA
TAFRSL
TAF AMD
KRSL 011706Z 0117/0212 16015G20KT P6SM SCT025
      TEMPO 0117/0119 BKN025
     FM020200 15008KT P6SM BKN035=

USA.gov is the U.S. government's official web portal to all federal, state and local government web resources and services.